sensor_id;sensor_type;location;lat;lon;timestamp;P1;durP1;ratioP1;P2;durP2;ratioP2
14294;SDS011;7231;59.370;18.016;2024-03-22T00:02:13;5.83;;;5.00;;
14294;SDS011;7231;59.370;18.016;2024-03-22T00:04:40;7.33;;;5.80;;
14294;SDS011;7231;59.370;18.016;2024-03-22T00:07:07;7.60;;;6.03;;
14294;SDS011;7231;59.370;18.016;2024-03-22T00:09:34;7.37;;;5.80;;
14294;SDS011;7231;59.370;18.016;2024-03-22T00:12:00;6.53;;;5.57;;
14294;SDS011;7231;59.370;18.016;2024-03-22T00:14:27;6.53;;;5.50;;
14294;SDS011;7231;59.370;18.016;2024-03-22T00:16:53;7.33;;;5.67;;
14294;SDS011;7231;59.370;18.016;2024-03-22T00:19:22;8.53;;;6.37;;
14294;SDS011;7231;59.370;18.016;2024-03-22T00:21:48;7.10;;;5.33;;
14294;SDS011;7231;59.370;18.016;2024-03-22T00:24:15;7.83;;;5.60;;
14294;SDS011;7231;59.370;18.016;2024-03-22T00:26:41;7.40;;;5.43;;
14294;SDS011;7231;59.370;18.016;2024-03-22T00:29:08;7.87;;;6.10;;
14294;SDS011;7231;59.370;18.016;2024-03-22T00:31:34;6.93;;;5.37;;
14294;SDS011;7231;59.370;18.016;2024-03-22T00:34:01;7.40;;;5.37;;
14294;SDS011;7231;59.370;18.016;2024-03-22T00:36:29;7.40;;;5.90;;
14294;SDS011;7231;59.370;18.016;2024-03-22T00:38:56;7.30;;;5.97;;
14294;SDS011;7231;59.370;18.016;2024-03-22T00:41:22;9.63;;;6.47;;
14294;SDS011;7231;59.370;18.016;2024-03-22T00:43:49;7.80;;;5.63;;
14294;SDS011;7231;59.370;18.016;2024-03-22T00:46:15;9.83;;;6.10;;
14294;SDS011;7231;59.370;18.016;2024-03-22T00:48:42;6.43;;;4.90;;
14294;SDS011;7231;59.370;18.016;2024-03-22T00:51:09;6.73;;;5.30;;
14294;SDS011;7231;59.370;18.016;2024-03-22T00:53:37;7.20;;;5.77;;
14294;SDS011;7231;59.370;18.016;2024-03-22T00:56:04;8.67;;;5.77;;
14294;SDS011;7231;59.370;18.016;2024-03-22T00:58:31;8.83;;;5.93;;
14294;SDS011;7231;59.370;18.016;2024-03-22T01:00:57;7.50;;;5.93;;
14294;SDS011;7231;59.370;18.016;2024-03-22T01:03:24;8.03;;;5.70;;
14294;SDS011;7231;59.370;18.016;2024-03-22T01:05:50;9.77;;;6.03;;
14294;SDS011;7231;59.370;18.016;2024-03-22T01:08:18;7.50;;;6.07;;
14294;SDS011;7231;59.370;18.016;2024-03-22T01:10:45;6.93;;;5.17;;
14294;SDS011;7231;59.370;18.016;2024-03-22T01:13:12;12.13;;;6.10;;
14294;SDS011;7231;59.370;18.016;2024-03-22T01:15:38;9.23;;;6.57;;
14294;SDS011;7231;59.370;18.016;2024-03-22T01:18:05;8.77;;;5.83;;
14294;SDS011;7231;59.370;18.016;2024-03-22T01:20:31;8.83;;;6.23;;
14294;SDS011;7231;59.370;18.016;2024-03-22T01:22:59;8.40;;;6.17;;
14294;SDS011;7231;59.370;18.016;2024-03-22T01:25:25;10.07;;;6.47;;
14294;SDS011;7231;59.370;18.016;2024-03-22T01:27:56;12.07;;;6.50;;
14294;SDS011;7231;59.370;18.016;2024-03-22T01:30:22;8.53;;;5.57;;
14294;SDS011;7231;59.370;18.016;2024-03-22T01:32:53;11.10;;;6.87;;
14294;SDS011;7231;59.370;18.016;2024-03-22T01:35:19;11.47;;;6.50;;
14294;SDS011;7231;59.370;18.016;2024-03-22T01:37:47;11.20;;;6.40;;
14294;SDS011;7231;59.370;18.016;2024-03-22T01:40:13;13.03;;;6.90;;
14294;SDS011;7231;59.370;18.016;2024-03-22T01:42:40;12.10;;;6.87;;
14294;SDS011;7231;59.370;18.016;2024-03-22T01:45:08;11.53;;;6.80;;
14294;SDS011;7231;59.370;18.016;2024-03-22T01:47:35;8.80;;;5.80;;
14294;SDS011;7231;59.370;18.016;2024-03-22T01:50:01;16.30;;;6.70;;
14294;SDS011;7231;59.370;18.016;2024-03-22T01:52:29;14.03;;;7.17;;
14294;SDS011;7231;59.370;18.016;2024-03-22T01:54:55;12.43;;;7.43;;
14294;SDS011;7231;59.370;18.016;2024-03-22T01:57:22;12.83;;;6.60;;
14294;SDS011;7231;59.370;18.016;2024-03-22T01:59:49;14.00;;;7.10;;
14294;SDS011;7231;59.370;18.016;2024-03-22T02:02:19;13.60;;;6.50;;
14294;SDS011;7231;59.370;18.016;2024-03-22T02:04:45;11.60;;;6.70;;
14294;SDS011;7231;59.370;18.016;2024-03-22T02:07:12;9.90;;;6.30;;
14294;SDS011;7231;59.370;18.016;2024-03-22T02:09:38;9.20;;;6.37;;
14294;SDS011;7231;59.370;18.016;2024-03-22T02:12:05;9.97;;;5.90;;
14294;SDS011;7231;59.370;18.016;2024-03-22T02:14:32;7.47;;;4.70;;
14294;SDS011;7231;59.370;18.016;2024-03-22T02:16:59;12.17;;;6.23;;
14294;SDS011;7231;59.370;18.016;2024-03-22T02:19:26;10.07;;;5.77;;
14294;SDS011;7231;59.370;18.016;2024-03-22T02:21:53;9.13;;;5.70;;
14294;SDS011;7231;59.370;18.016;2024-03-22T02:24:21;5.87;;;3.73;;
14294;SDS011;7231;59.370;18.016;2024-03-22T02:26:48;7.73;;;5.13;;
14294;SDS011;7231;59.370;18.016;2024-03-22T02:29:14;8.03;;;4.80;;
14294;SDS011;7231;59.370;18.016;2024-03-22T02:31:41;10.60;;;5.50;;
14294;SDS011;7231;59.370;18.016;2024-03-22T02:34:07;8.83;;;5.23;;
14294;SDS011;7231;59.370;18.016;2024-03-22T02:36:34;10.97;;;5.77;;
14294;SDS011;7231;59.370;18.016;2024-03-22T02:39:01;8.00;;;5.60;;
14294;SDS011;7231;59.370;18.016;2024-03-22T02:41:30;8.83;;;6.07;;
14294;SDS011;7231;59.370;18.016;2024-03-22T02:43:56;8.13;;;5.57;;
14294;SDS011;7231;59.370;18.016;2024-03-22T02:46:23;8.53;;;5.10;;
14294;SDS011;7231;59.370;18.016;2024-03-22T02:48:49;7.97;;;4.73;;
14294;SDS011;7231;59.370;18.016;2024-03-22T02:51:16;8.20;;;5.43;;
14294;SDS011;7231;59.370;18.016;2024-03-22T02:53:42;8.67;;;5.33;;
14294;SDS011;7231;59.370;18.016;2024-03-22T02:56:09;9.97;;;5.77;;
14294;SDS011;7231;59.370;18.016;2024-03-22T02:58:37;8.60;;;5.10;;
14294;SDS011;7231;59.370;18.016;2024-03-22T03:01:04;9.13;;;5.00;;
14294;SDS011;7231;59.370;18.016;2024-03-22T03:03:31;6.93;;;4.90;;
14294;SDS011;7231;59.370;18.016;2024-03-22T03:05:58;9.00;;;5.37;;
14294;SDS011;7231;59.370;18.016;2024-03-22T03:08:24;8.87;;;5.43;;
14294;SDS011;7231;59.370;18.016;2024-03-22T03:10:51;8.53;;;5.13;;
14294;SDS011;7231;59.370;18.016;2024-03-22T03:13:17;6.70;;;4.73;;
14294;SDS011;7231;59.370;18.016;2024-03-22T03:15:46;7.13;;;5.00;;
14294;SDS011;7231;59.370;18.016;2024-03-22T03:18:12;8.10;;;5.23;;
14294;SDS011;7231;59.370;18.016;2024-03-22T03:20:39;6.83;;;4.20;;
14294;SDS011;7231;59.370;18.016;2024-03-22T03:23:05;6.67;;;5.13;;
14294;SDS011;7231;59.370;18.016;2024-03-22T03:25:32;8.53;;;5.23;;
14294;SDS011;7231;59.370;18.016;2024-03-22T03:27:58;8.87;;;5.00;;
14294;SDS011;7231;59.370;18.016;2024-03-22T03:30:25;7.80;;;4.73;;
14294;SDS011;7231;59.370;18.016;2024-03-22T03:32:54;6.50;;;4.37;;
14294;SDS011;7231;59.370;18.016;2024-03-22T03:35:21;6.63;;;4.60;;
14294;SDS011;7231;59.370;18.016;2024-03-22T03:37:47;8.60;;;4.70;;
14294;SDS011;7231;59.370;18.016;2024-03-22T03:40:15;6.53;;;4.90;;
14294;SDS011;7231;59.370;18.016;2024-03-22T03:42:42;5.87;;;3.97;;
14294;SDS011;7231;59.370;18.016;2024-03-22T03:45:09;6.07;;;4.10;;
14294;SDS011;7231;59.370;18.016;2024-03-22T03:47:35;4.67;;;3.53;;
14294;SDS011;7231;59.370;18.016;2024-03-22T03:50:03;6.13;;;4.00;;
14294;SDS011;7231;59.370;18.016;2024-03-22T03:52:30;7.50;;;4.40;;
14294;SDS011;7231;59.370;18.016;2024-03-22T03:54:57;8.57;;;5.23;;
14294;SDS011;7231;59.370;18.016;2024-03-22T03:57:23;6.63;;;4.30;;
14294;SDS011;7231;59.370;18.016;2024-03-22T03:59:51;8.70;;;5.17;;
14294;SDS011;7231;59.370;18.016;2024-03-22T04:02:17;7.47;;;4.90;;
14294;SDS011;7231;59.370;18.016;2024-03-22T04:04:44;6.27;;;4.30;;
14294;SDS011;7231;59.370;18.016;2024-03-22T04:07:11;9.13;;;5.77;;
14294;SDS011;7231;59.370;18.016;2024-03-22T04:09:38;7.40;;;5.20;;
14294;SDS011;7231;59.370;18.016;2024-03-22T04:12:05;6.10;;;4.57;;
14294;SDS011;7231;59.370;18.016;2024-03-22T04:14:33;7.00;;;4.73;;
14294;SDS011;7231;59.370;18.016;2024-03-22T04:16:59;6.70;;;4.57;;
14294;SDS011;7231;59.370;18.016;2024-03-22T04:19:26;7.20;;;4.63;;
14294;SDS011;7231;59.370;18.016;2024-03-22T04:21:52;7.53;;;4.70;;
14294;SDS011;7231;59.370;18.016;2024-03-22T04:24:20;6.67;;;4.53;;
14294;SDS011;7231;59.370;18.016;2024-03-22T04:26:47;7.67;;;5.00;;
14294;SDS011;7231;59.370;18.016;2024-03-22T04:29:14;7.30;;;4.70;;
14294;SDS011;7231;59.370;18.016;2024-03-22T04:31:40;7.17;;;4.73;;
14294;SDS011;7231;59.370;18.016;2024-03-22T04:34:07;6.73;;;4.97;;
14294;SDS011;7231;59.370;18.016;2024-03-22T04:36:33;7.27;;;4.87;;
14294;SDS011;7231;59.370;18.016;2024-03-22T04:39:00;8.40;;;5.30;;
14294;SDS011;7231;59.370;18.016;2024-03-22T04:41:30;6.70;;;5.00;;
14294;SDS011;7231;59.370;18.016;2024-03-22T04:43:57;8.07;;;4.93;;
14294;SDS011;7231;59.370;18.016;2024-03-22T04:46:24;6.63;;;5.10;;
14294;SDS011;7231;59.370;18.016;2024-03-22T04:48:51;8.53;;;4.83;;
14294;SDS011;7231;59.370;18.016;2024-03-22T04:51:18;7.93;;;4.97;;
14294;SDS011;7231;59.370;18.016;2024-03-22T04:53:44;7.00;;;5.47;;
14294;SDS011;7231;59.370;18.016;2024-03-22T04:56:11;7.57;;;5.73;;
14294;SDS011;7231;59.370;18.016;2024-03-22T04:58:39;7.00;;;5.43;;
14294;SDS011;7231;59.370;18.016;2024-03-22T05:01:05;7.33;;;5.43;;
14294;SDS011;7231;59.370;18.016;2024-03-22T05:03:32;8.50;;;5.17;;
14294;SDS011;7231;59.370;18.016;2024-03-22T05:05:59;8.87;;;5.77;;
14294;SDS011;7231;59.370;18.016;2024-03-22T05:08:28;12.00;;;6.00;;
14294;SDS011;7231;59.370;18.016;2024-03-22T05:10:54;7.63;;;5.30;;
14294;SDS011;7231;59.370;18.016;2024-03-22T05:13:21;7.73;;;6.40;;
14294;SDS011;7231;59.370;18.016;2024-03-22T05:15:49;6.67;;;5.43;;
14294;SDS011;7231;59.370;18.016;2024-03-22T05:18:16;7.37;;;5.90;;
14294;SDS011;7231;59.370;18.016;2024-03-22T05:20:42;12.30;;;6.80;;
14294;SDS011;7231;59.370;18.016;2024-03-22T05:23:10;10.20;;;6.47;;
14294;SDS011;7231;59.370;18.016;2024-03-22T05:25:36;8.60;;;6.10;;
14294;SDS011;7231;59.370;18.016;2024-03-22T05:28:03;9.10;;;6.03;;
14294;SDS011;7231;59.370;18.016;2024-03-22T05:30:29;9.17;;;5.73;;
14294;SDS011;7231;59.370;18.016;2024-03-22T05:32:58;7.60;;;5.23;;
14294;SDS011;7231;59.370;18.016;2024-03-22T05:35:24;9.80;;;5.43;;
14294;SDS011;7231;59.370;18.016;2024-03-22T05:37:52;10.10;;;6.33;;
14294;SDS011;7231;59.370;18.016;2024-03-22T05:40:18;6.90;;;5.93;;
14294;SDS011;7231;59.370;18.016;2024-03-22T05:42:45;8.27;;;5.93;;
14294;SDS011;7231;59.370;18.016;2024-03-22T05:45:12;7.37;;;5.70;;
14294;SDS011;7231;59.370;18.016;2024-03-22T05:47:38;10.03;;;5.47;;
14294;SDS011;7231;59.370;18.016;2024-03-22T05:50:07;7.03;;;5.20;;
14294;SDS011;7231;59.370;18.016;2024-03-22T05:52:34;9.43;;;5.70;;
14294;SDS011;7231;59.370;18.016;2024-03-22T05:55:01;10.63;;;5.53;;
14294;SDS011;7231;59.370;18.016;2024-03-22T05:57:28;7.17;;;5.60;;
14294;SDS011;7231;59.370;18.016;2024-03-22T05:59:55;8.00;;;5.50;;
14294;SDS011;7231;59.370;18.016;2024-03-22T06:02:21;7.13;;;5.57;;
14294;SDS011;7231;59.370;18.016;2024-03-22T06:04:48;9.27;;;6.60;;
14294;SDS011;7231;59.370;18.016;2024-03-22T06:07:16;7.40;;;5.47;;
14294;SDS011;7231;59.370;18.016;2024-03-22T06:09:43;7.53;;;5.47;;
14294;SDS011;7231;59.370;18.016;2024-03-22T06:12:11;10.67;;;6.70;;
14294;SDS011;7231;59.370;18.016;2024-03-22T06:14:39;9.33;;;6.07;;
14294;SDS011;7231;59.370;18.016;2024-03-22T06:17:05;9.27;;;6.03;;
14294;SDS011;7231;59.370;18.016;2024-03-22T06:19:32;6.13;;;4.93;;
14294;SDS011;7231;59.370;18.016;2024-03-22T06:21:58;6.17;;;5.10;;
14294;SDS011;7231;59.370;18.016;2024-03-22T06:24:27;8.00;;;5.07;;
14294;SDS011;7231;59.370;18.016;2024-03-22T06:26:53;5.73;;;4.80;;
14294;SDS011;7231;59.370;18.016;2024-03-22T06:29:20;5.83;;;5.10;;
14294;SDS011;7231;59.370;18.016;2024-03-22T06:31:46;9.00;;;5.83;;
14294;SDS011;7231;59.370;18.016;2024-03-22T06:34:15;6.07;;;4.57;;
14294;SDS011;7231;59.370;18.016;2024-03-22T06:36:41;7.93;;;4.80;;
14294;SDS011;7231;59.370;18.016;2024-03-22T06:39:09;6.27;;;4.33;;
14294;SDS011;7231;59.370;18.016;2024-03-22T06:41:37;6.73;;;4.77;;
14294;SDS011;7231;59.370;18.016;2024-03-22T06:44:04;5.77;;;4.60;;
14294;SDS011;7231;59.370;18.016;2024-03-22T06:46:30;5.63;;;4.00;;
14294;SDS011;7231;59.370;18.016;2024-03-22T06:48:57;4.47;;;3.63;;
14294;SDS011;7231;59.370;18.016;2024-03-22T06:51:24;7.30;;;4.67;;
14294;SDS011;7231;59.370;18.016;2024-03-22T06:53:51;4.80;;;4.00;;
14294;SDS011;7231;59.370;18.016;2024-03-22T06:56:17;5.50;;;3.87;;
14294;SDS011;7231;59.370;18.016;2024-03-22T06:58:46;6.70;;;3.57;;
14294;SDS011;7231;59.370;18.016;2024-03-22T07:01:12;5.17;;;3.70;;
14294;SDS011;7231;59.370;18.016;2024-03-22T07:03:39;6.37;;;4.23;;
14294;SDS011;7231;59.370;18.016;2024-03-22T07:06:05;4.33;;;3.60;;
14294;SDS011;7231;59.370;18.016;2024-03-22T07:08:35;6.70;;;4.17;;
14294;SDS011;7231;59.370;18.016;2024-03-22T07:11:04;5.97;;;4.10;;
14294;SDS011;7231;59.370;18.016;2024-03-22T07:13:32;5.33;;;3.93;;
14294;SDS011;7231;59.370;18.016;2024-03-22T07:16:00;12.43;;;5.30;;
14294;SDS011;7231;59.370;18.016;2024-03-22T07:18:27;5.47;;;4.37;;
14294;SDS011;7231;59.370;18.016;2024-03-22T07:20:53;6.07;;;4.83;;
14294;SDS011;7231;59.370;18.016;2024-03-22T07:23:20;5.37;;;4.70;;
14294;SDS011;7231;59.370;18.016;2024-03-22T07:25:46;6.87;;;5.13;;
14294;SDS011;7231;59.370;18.016;2024-03-22T07:28:13;6.33;;;4.97;;
14294;SDS011;7231;59.370;18.016;2024-03-22T07:30:40;6.37;;;4.67;;
14294;SDS011;7231;59.370;18.016;2024-03-22T07:33:11;6.60;;;5.37;;
14294;SDS011;7231;59.370;18.016;2024-03-22T07:35:38;6.57;;;5.03;;
14294;SDS011;7231;59.370;18.016;2024-03-22T07:38:06;7.73;;;4.80;;
14294;SDS011;7231;59.370;18.016;2024-03-22T07:40:32;6.23;;;4.80;;
14294;SDS011;7231;59.370;18.016;2024-03-22T07:42:59;7.10;;;4.27;;
14294;SDS011;7231;59.370;18.016;2024-03-22T07:45:31;7.13;;;5.40;;
14294;SDS011;7231;59.370;18.016;2024-03-22T07:47:58;8.37;;;5.13;;
14294;SDS011;7231;59.370;18.016;2024-03-22T07:50:26;6.10;;;5.20;;
14294;SDS011;7231;59.370;18.016;2024-03-22T07:52:54;6.77;;;5.53;;
14294;SDS011;7231;59.370;18.016;2024-03-22T07:55:20;7.40;;;6.07;;
14294;SDS011;7231;59.370;18.016;2024-03-22T07:57:47;8.60;;;5.57;;
14294;SDS011;7231;59.370;18.016;2024-03-22T08:00:13;8.83;;;5.63;;
14294;SDS011;7231;59.370;18.016;2024-03-22T08:02:41;8.30;;;5.43;;
14294;SDS011;7231;59.370;18.016;2024-03-22T08:05:07;7.13;;;5.63;;
14294;SDS011;7231;59.370;18.016;2024-03-22T08:07:36;7.67;;;5.17;;
14294;SDS011;7231;59.370;18.016;2024-03-22T08:10:02;7.17;;;4.93;;
14294;SDS011;7231;59.370;18.016;2024-03-22T08:12:30;6.37;;;5.10;;
14294;SDS011;7231;59.370;18.016;2024-03-22T08:14:56;8.70;;;5.10;;
14294;SDS011;7231;59.370;18.016;2024-03-22T08:17:23;7.93;;;5.07;;
14294;SDS011;7231;59.370;18.016;2024-03-22T08:19:49;7.03;;;4.40;;
14294;SDS011;7231;59.370;18.016;2024-03-22T08:22:16;6.50;;;4.33;;
14294;SDS011;7231;59.370;18.016;2024-03-22T08:24:44;5.57;;;4.70;;
14294;SDS011;7231;59.370;18.016;2024-03-22T08:27:11;7.63;;;4.40;;
14294;SDS011;7231;59.370;18.016;2024-03-22T08:29:37;6.37;;;5.03;;
14294;SDS011;7231;59.370;18.016;2024-03-22T08:32:06;6.73;;;4.60;;
14294;SDS011;7231;59.370;18.016;2024-03-22T08:34:32;6.70;;;4.73;;
14294;SDS011;7231;59.370;18.016;2024-03-22T08:37:00;7.87;;;4.97;;
14294;SDS011;7231;59.370;18.016;2024-03-22T08:39:26;8.50;;;4.60;;
14294;SDS011;7231;59.370;18.016;2024-03-22T08:41:54;6.47;;;4.70;;
14294;SDS011;7231;59.370;18.016;2024-03-22T08:44:20;8.17;;;4.93;;
14294;SDS011;7231;59.370;18.016;2024-03-22T08:46:48;6.10;;;5.03;;
14294;SDS011;7231;59.370;18.016;2024-03-22T08:49:15;7.10;;;4.53;;
14294;SDS011;7231;59.370;18.016;2024-03-22T08:51:44;6.10;;;4.33;;
14294;SDS011;7231;59.370;18.016;2024-03-22T08:54:11;5.07;;;3.97;;
14294;SDS011;7231;59.370;18.016;2024-03-22T08:56:38;5.23;;;4.53;;
14294;SDS011;7231;59.370;18.016;2024-03-22T08:59:06;5.60;;;4.67;;
14294;SDS011;7231;59.370;18.016;2024-03-22T09:01:33;6.47;;;4.93;;
14294;SDS011;7231;59.370;18.016;2024-03-22T09:03:59;6.83;;;4.80;;
14294;SDS011;7231;59.370;18.016;2024-03-22T09:06:26;6.80;;;4.50;;
14294;SDS011;7231;59.370;18.016;2024-03-22T09:08:52;5.47;;;4.50;;
14294;SDS011;7231;59.370;18.016;2024-03-22T09:11:23;5.90;;;4.43;;
14294;SDS011;7231;59.370;18.016;2024-03-22T09:13:51;7.40;;;5.20;;
14294;SDS011;7231;59.370;18.016;2024-03-22T09:16:20;5.30;;;3.93;;
14294;SDS011;7231;59.370;18.016;2024-03-22T09:18:46;19.33;;;14.93;;
14294;SDS011;7231;59.370;18.016;2024-03-22T09:21:13;6.70;;;5.03;;
14294;SDS011;7231;59.370;18.016;2024-03-22T09:23:40;5.53;;;4.73;;
14294;SDS011;7231;59.370;18.016;2024-03-22T09:26:06;6.70;;;4.37;;
14294;SDS011;7231;59.370;18.016;2024-03-22T09:28:33;5.80;;;4.70;;
14294;SDS011;7231;59.370;18.016;2024-03-22T09:31:03;4.70;;;3.47;;
14294;SDS011;7231;59.370;18.016;2024-03-22T09:33:32;6.23;;;4.93;;
14294;SDS011;7231;59.370;18.016;2024-03-22T09:35:58;6.60;;;4.03;;
14294;SDS011;7231;59.370;18.016;2024-03-22T09:38:26;5.87;;;4.77;;
14294;SDS011;7231;59.370;18.016;2024-03-22T09:40:52;7.10;;;5.00;;
14294;SDS011;7231;59.370;18.016;2024-03-22T09:43:20;6.13;;;5.00;;
14294;SDS011;7231;59.370;18.016;2024-03-22T09:45:47;6.13;;;4.30;;
14294;SDS011;7231;59.370;18.016;2024-03-22T09:48:15;9.43;;;5.37;;
14294;SDS011;7231;59.370;18.016;2024-03-22T09:50:44;7.03;;;5.17;;
14294;SDS011;7231;59.370;18.016;2024-03-22T09:53:13;6.90;;;5.07;;
14294;SDS011;7231;59.370;18.016;2024-03-22T09:55:43;6.20;;;4.90;;
14294;SDS011;7231;59.370;18.016;2024-03-22T09:58:12;6.10;;;5.30;;
14294;SDS011;7231;59.370;18.016;2024-03-22T10:00:38;6.70;;;5.47;;
14294;SDS011;7231;59.370;18.016;2024-03-22T10:03:05;5.77;;;5.13;;
14294;SDS011;7231;59.370;18.016;2024-03-22T10:05:33;7.70;;;5.43;;
14294;SDS011;7231;59.370;18.016;2024-03-22T10:08:02;7.53;;;5.77;;
14294;SDS011;7231;59.370;18.016;2024-03-22T10:10:28;7.50;;;5.73;;
14294;SDS011;7231;59.370;18.016;2024-03-22T10:12:55;12.37;;;6.07;;
14294;SDS011;7231;59.370;18.016;2024-03-22T10:15:23;7.03;;;6.10;;
14294;SDS011;7231;59.370;18.016;2024-03-22T10:17:51;7.90;;;6.50;;
14294;SDS011;7231;59.370;18.016;2024-03-22T10:20:20;8.07;;;6.00;;
14294;SDS011;7231;59.370;18.016;2024-03-22T10:22:48;8.93;;;6.17;;
14294;SDS011;7231;59.370;18.016;2024-03-22T10:25:16;9.83;;;6.10;;
14294;SDS011;7231;59.370;18.016;2024-03-22T10:27:43;9.37;;;6.87;;
14294;SDS011;7231;59.370;18.016;2024-03-22T10:30:10;9.10;;;6.90;;
14294;SDS011;7231;59.370;18.016;2024-03-22T10:32:39;9.27;;;7.30;;
14294;SDS011;7231;59.370;18.016;2024-03-22T10:35:05;11.13;;;7.38;;
14294;SDS011;7231;59.370;18.016;2024-03-22T10:37:32;9.17;;;7.90;;
14294;SDS011;7231;59.370;18.016;2024-03-22T10:39:59;9.43;;;7.43;;
14294;SDS011;7231;59.370;18.016;2024-03-22T10:42:34;9.17;;;7.27;;
14294;SDS011;7231;59.370;18.016;2024-03-22T10:45:01;9.60;;;7.03;;
14294;SDS011;7231;59.370;18.016;2024-03-22T10:47:29;10.10;;;6.65;;
14294;SDS011;7231;59.370;18.016;2024-03-22T10:49:59;11.27;;;7.20;;
14294;SDS011;7231;59.370;18.016;2024-03-22T10:52:33;9.10;;;6.80;;
14294;SDS011;7231;59.370;18.016;2024-03-22T10:55:03;13.53;;;7.90;;
14294;SDS011;7231;59.370;18.016;2024-03-22T10:57:35;10.38;;;6.82;;
14294;SDS011;7231;59.370;18.016;2024-03-22T11:00:03;9.63;;;6.35;;
14294;SDS011;7231;59.370;18.016;2024-03-22T11:02:35;10.27;;;7.00;;
14294;SDS011;7231;59.370;18.016;2024-03-22T11:05:02;9.83;;;7.07;;
14294;SDS011;7231;59.370;18.016;2024-03-22T11:07:29;10.15;;;7.00;;
14294;SDS011;7231;59.370;18.016;2024-03-22T11:09:56;10.07;;;7.78;;
14294;SDS011;7231;59.370;18.016;2024-03-22T11:12:24;10.57;;;7.22;;
14294;SDS011;7231;59.370;18.016;2024-03-22T11:14:53;7.78;;;6.55;;
14294;SDS011;7231;59.370;18.016;2024-03-22T11:17:20;9.20;;;7.22;;
14294;SDS011;7231;59.370;18.016;2024-03-22T11:19:50;9.32;;;6.88;;
14294;SDS011;7231;59.370;18.016;2024-03-22T11:22:17;11.13;;;7.27;;
14294;SDS011;7231;59.370;18.016;2024-03-22T11:24:43;10.65;;;7.40;;
14294;SDS011;7231;59.370;18.016;2024-03-22T11:27:11;10.68;;;7.47;;
14294;SDS011;7231;59.370;18.016;2024-03-22T11:29:37;9.35;;;6.97;;
14294;SDS011;7231;59.370;18.016;2024-03-22T11:32:08;8.77;;;6.37;;
14294;SDS011;7231;59.370;18.016;2024-03-22T11:34:34;13.18;;;7.60;;
14294;SDS011;7231;59.370;18.016;2024-03-22T11:37:01;9.82;;;6.95;;
14294;SDS011;7231;59.370;18.016;2024-03-22T11:39:28;9.63;;;7.35;;
14294;SDS011;7231;59.370;18.016;2024-03-22T11:41:55;9.68;;;6.90;;
14294;SDS011;7231;59.370;18.016;2024-03-22T11:44:22;9.35;;;7.15;;
14294;SDS011;7231;59.370;18.016;2024-03-22T11:46:51;11.45;;;6.60;;
14294;SDS011;7231;59.370;18.016;2024-03-22T11:49:19;7.95;;;5.70;;
14294;SDS011;7231;59.370;18.016;2024-03-22T11:51:46;11.77;;;7.55;;
14294;SDS011;7231;59.370;18.016;2024-03-22T11:54:13;10.23;;;7.57;;
14294;SDS011;7231;59.370;18.016;2024-03-22T11:56:40;10.05;;;7.00;;
14294;SDS011;7231;59.370;18.016;2024-03-22T11:59:06;12.07;;;7.35;;
14294;SDS011;7231;59.370;18.016;2024-03-22T12:01:33;8.63;;;6.60;;
14294;SDS011;7231;59.370;18.016;2024-03-22T12:03:59;9.07;;;7.28;;
14294;SDS011;7231;59.370;18.016;2024-03-22T12:06:28;9.40;;;6.72;;
14294;SDS011;7231;59.370;18.016;2024-03-22T12:08:54;10.93;;;7.20;;
14294;SDS011;7231;59.370;18.016;2024-03-22T12:11:21;10.10;;;7.47;;
14294;SDS011;7231;59.370;18.016;2024-03-22T12:13:47;10.32;;;6.82;;
14294;SDS011;7231;59.370;18.016;2024-03-22T12:16:14;12.18;;;7.97;;
14294;SDS011;7231;59.370;18.016;2024-03-22T12:18:40;10.93;;;7.20;;
14294;SDS011;7231;59.370;18.016;2024-03-22T12:21:07;12.25;;;7.78;;
14294;SDS011;7231;59.370;18.016;2024-03-22T12:23:35;13.23;;;7.38;;
14294;SDS011;7231;59.370;18.016;2024-03-22T12:26:02;10.18;;;6.80;;
14294;SDS011;7231;59.370;18.016;2024-03-22T12:28:28;10.95;;;7.20;;
14294;SDS011;7231;59.370;18.016;2024-03-22T12:30:56;9.18;;;6.32;;
14294;SDS011;7231;59.370;18.016;2024-03-22T12:33:22;10.15;;;7.10;;
14294;SDS011;7231;59.370;18.016;2024-03-22T12:35:49;10.90;;;7.28;;
14294;SDS011;7231;59.370;18.016;2024-03-22T12:38:15;10.88;;;7.18;;
14294;SDS011;7231;59.370;18.016;2024-03-22T12:40:44;10.38;;;7.13;;
14294;SDS011;7231;59.370;18.016;2024-03-22T12:43:11;10.38;;;6.93;;
14294;SDS011;7231;59.370;18.016;2024-03-22T12:45:38;10.02;;;7.32;;
14294;SDS011;7231;59.370;18.016;2024-03-22T12:48:04;9.65;;;6.68;;
14294;SDS011;7231;59.370;18.016;2024-03-22T12:50:32;10.68;;;7.20;;
14294;SDS011;7231;59.370;18.016;2024-03-22T12:52:59;9.45;;;7.32;;
14294;SDS011;7231;59.370;18.016;2024-03-22T12:55:26;12.25;;;7.63;;
14294;SDS011;7231;59.370;18.016;2024-03-22T12:57:55;9.07;;;6.88;;
14294;SDS011;7231;59.370;18.016;2024-03-22T13:00:22;9.65;;;6.10;;
14294;SDS011;7231;59.370;18.016;2024-03-22T13:02:48;9.55;;;7.43;;
14294;SDS011;7231;59.370;18.016;2024-03-22T13:05:15;9.18;;;6.47;;
14294;SDS011;7231;59.370;18.016;2024-03-22T13:07:41;8.48;;;5.88;;
14294;SDS011;7231;59.370;18.016;2024-03-22T13:10:09;10.90;;;7.32;;
14294;SDS011;7231;59.370;18.016;2024-03-22T13:12:37;11.05;;;7.20;;
14294;SDS011;7231;59.370;18.016;2024-03-22T13:15:05;12.30;;;7.55;;
14294;SDS011;7231;59.370;18.016;2024-03-22T13:17:32;6.22;;;4.55;;
14294;SDS011;7231;59.370;18.016;2024-03-22T13:19:58;9.23;;;6.57;;
14294;SDS011;7231;59.370;18.016;2024-03-22T13:22:26;10.07;;;6.35;;
14294;SDS011;7231;59.370;18.016;2024-03-22T13:24:52;8.60;;;6.25;;
14294;SDS011;7231;59.370;18.016;2024-03-22T13:27:20;7.70;;;6.00;;
14294;SDS011;7231;59.370;18.016;2024-03-22T13:29:48;8.43;;;5.75;;
14294;SDS011;7231;59.370;18.016;2024-03-22T13:32:16;6.82;;;5.40;;
14294;SDS011;7231;59.370;18.016;2024-03-22T13:34:45;8.75;;;5.20;;
14294;SDS011;7231;59.370;18.016;2024-03-22T13:37:12;7.85;;;4.50;;
14294;SDS011;7231;59.370;18.016;2024-03-22T13:39:38;6.75;;;5.50;;
14294;SDS011;7231;59.370;18.016;2024-03-22T13:42:05;8.68;;;5.10;;
14294;SDS011;7231;59.370;18.016;2024-03-22T13:44:32;8.50;;;5.88;;
14294;SDS011;7231;59.370;18.016;2024-03-22T13:46:59;5.40;;;4.78;;
14294;SDS011;7231;59.370;18.016;2024-03-22T13:49:27;7.32;;;4.70;;
14294;SDS011;7231;59.370;18.016;2024-03-22T13:51:54;7.63;;;4.80;;
14294;SDS011;7231;59.370;18.016;2024-03-22T13:54:20;6.47;;;4.50;;
14294;SDS011;7231;59.370;18.016;2024-03-22T13:56:47;6.90;;;4.47;;
14294;SDS011;7231;59.370;18.016;2024-03-22T13:59:13;5.43;;;4.50;;
14294;SDS011;7231;59.370;18.016;2024-03-22T14:01:41;6.72;;;4.57;;
14294;SDS011;7231;59.370;18.016;2024-03-22T14:04:10;5.90;;;3.70;;
14294;SDS011;7231;59.370;18.016;2024-03-22T14:06:39;9.88;;;3.78;;
14294;SDS011;7231;59.370;18.016;2024-03-22T14:09:05;6.10;;;3.55;;
14294;SDS011;7231;59.370;18.016;2024-03-22T14:11:35;4.30;;;3.15;;
14294;SDS011;7231;59.370;18.016;2024-03-22T14:14:02;2.88;;;2.17;;
14294;SDS011;7231;59.370;18.016;2024-03-22T14:16:29;3.67;;;2.47;;
14294;SDS011;7231;59.370;18.016;2024-03-22T14:18:55;5.35;;;2.85;;
14294;SDS011;7231;59.370;18.016;2024-03-22T14:21:23;4.88;;;2.17;;
14294;SDS011;7231;59.370;18.016;2024-03-22T14:23:51;2.28;;;1.40;;
14294;SDS011;7231;59.370;18.016;2024-03-22T14:26:19;3.42;;;1.58;;
14294;SDS011;7231;59.370;18.016;2024-03-22T14:28:45;5.07;;;1.90;;
14294;SDS011;7231;59.370;18.016;2024-03-22T14:31:12;4.10;;;1.60;;
14294;SDS011;7231;59.370;18.016;2024-03-22T14:33:39;3.75;;;1.80;;
14294;SDS011;7231;59.370;18.016;2024-03-22T14:36:07;4.70;;;1.80;;
14294;SDS011;7231;59.370;18.016;2024-03-22T14:38:34;2.42;;;1.45;;
14294;SDS011;7231;59.370;18.016;2024-03-22T14:41:03;2.15;;;1.13;;
14294;SDS011;7231;59.370;18.016;2024-03-22T14:43:30;3.40;;;1.67;;
14294;SDS011;7231;59.370;18.016;2024-03-22T14:46:00;3.63;;;1.30;;